createdAt,value
2018-04-13T00:02:18.384Z,31.77
2018-04-13T00:04:46.665Z,27.60
2018-04-13T00:07:14.147Z,29.97
2018-04-13T00:09:41.648Z,31.07
2018-04-13T00:12:09.144Z,31.90
2018-04-13T00:14:36.670Z,32.40
2018-04-13T00:17:04.949Z,34.77
2018-04-13T00:19:32.504Z,31.60
2018-04-13T00:22:00.813Z,34.83
2018-04-13T00:24:29.100Z,33.50
2018-04-13T00:26:57.535Z,32.60
2018-04-13T00:29:25.020Z,32.50
2018-04-13T00:31:52.504Z,31.37
2018-04-13T00:34:20.020Z,32.17
2018-04-13T00:36:48.309Z,33.30
2018-04-13T00:39:16.716Z,31.50
2018-04-13T00:41:44.195Z,31.00
2018-04-13T00:44:11.774Z,31.70
2018-04-13T00:46:40.022Z,33.50
2018-04-13T00:49:08.308Z,33.70
2018-04-13T00:51:35.846Z,30.87
2018-04-13T00:54:03.325Z,28.57
2018-04-13T00:56:30.883Z,29.97
2018-04-13T00:58:58.369Z,29.83
2018-04-13T01:01:25.844Z,27.30
2018-04-13T01:03:53.353Z,22.50
2018-04-13T01:06:20.851Z,27.70
2018-04-13T01:08:48.355Z,29.40
2018-04-13T01:11:15.877Z,28.97
2018-04-13T01:13:43.361Z,29.80
2018-04-13T01:16:10.841Z,29.87
2018-04-13T01:18:38.378Z,28.40
2018-04-13T01:21:05.856Z,29.47
2018-04-13T01:23:33.362Z,24.73
2018-04-13T01:26:00.879Z,24.70
2018-04-13T01:28:29.134Z,25.20
2018-04-13T01:30:56.648Z,28.43
2018-04-13T01:33:24.176Z,26.23
2018-04-13T01:35:51.663Z,25.20
2018-04-13T01:38:19.177Z,24.90
2018-04-13T01:40:46.704Z,24.13
2018-04-13T01:43:14.198Z,28.10
2018-04-13T01:45:41.712Z,27.87
2018-04-13T01:48:09.209Z,25.90
2018-04-13T01:50:36.744Z,27.00
2018-04-13T01:53:04.230Z,27.73
2018-04-13T01:55:31.818Z,25.23
2018-04-13T01:57:59.326Z,26.00
2018-04-13T02:00:26.837Z,25.47
2018-04-13T02:02:54.358Z,24.30
2018-04-13T02:05:22.803Z,24.67
2018-04-13T02:07:50.310Z,25.70
2018-04-13T02:10:17.801Z,23.37
2018-04-13T02:12:45.344Z,22.00
2018-04-13T02:15:12.859Z,23.33
2018-04-13T02:17:40.353Z,21.77
2018-04-13T02:20:07.897Z,21.63
2018-04-13T02:22:35.395Z,23.30
2018-04-13T02:25:02.927Z,22.73
2018-04-13T02:27:30.500Z,22.03
2018-04-13T02:29:58.794Z,19.90
2018-04-13T02:32:27.084Z,19.37
2018-04-13T02:34:55.369Z,18.80
2018-04-13T02:37:23.673Z,19.90
2018-04-13T02:39:51.202Z,16.07
2018-04-13T02:42:18.737Z,16.13
2018-04-13T02:44:46.860Z,14.90
2018-04-13T02:47:16.057Z,16.77
2018-04-13T02:49:43.660Z,16.20
2018-04-13T02:52:11.271Z,17.70
2018-04-13T02:54:38.786Z,18.43
2018-04-13T02:57:06.335Z,19.67
2018-04-13T02:59:33.855Z,21.70
2018-04-13T03:02:01.428Z,18.80
2018-04-13T03:04:29.222Z,18.47
2018-04-13T03:06:56.733Z,21.53
2018-04-13T03:09:25.164Z,20.10
2018-04-13T03:11:52.685Z,20.43
2018-04-13T03:14:20.316Z,19.83
2018-04-13T03:16:48.587Z,18.07
2018-04-13T03:19:16.102Z,18.00
2018-04-13T03:21:43.593Z,19.80
2018-04-13T03:24:11.098Z,20.80
2018-04-13T03:26:39.324Z,18.90
2018-04-13T03:29:07.950Z,18.67
2018-04-13T03:31:35.440Z,17.30
2018-04-13T03:34:02.968Z,18.30
2018-04-13T03:36:30.496Z,15.47
2018-04-13T03:38:58.072Z,15.10
2018-04-13T03:41:26.357Z,16.77
2018-04-13T03:43:54.828Z,17.00
2018-04-13T03:46:22.321Z,13.77
2018-04-13T03:48:49.897Z,15.30
2018-04-13T03:51:17.480Z,17.30
2018-04-13T03:53:45.800Z,14.90
2018-04-13T03:56:13.438Z,14.90
2018-04-13T03:58:41.751Z,15.80
2018-04-13T04:01:10.142Z,18.10
2018-04-13T04:03:37.722Z,16.07
2018-04-13T04:06:05.312Z,16.03
2018-04-13T04:08:32.836Z,16.33
2018-04-13T04:11:01.579Z,14.00
2018-04-13T04:13:29.181Z,15.37
2018-04-13T04:15:56.648Z,17.93
2018-04-13T04:18:25.005Z,16.07
2018-04-13T04:21:04.507Z,15.07
2018-04-13T04:23:43.841Z,14.80
2018-04-13T04:26:27.820Z,15.90
2018-04-13T04:28:55.378Z,16.13
2018-04-13T04:31:22.907Z,15.80
2018-04-13T04:33:50.413Z,15.03
2018-04-13T04:36:17.975Z,14.83
2018-04-13T04:38:46.198Z,15.33
2018-04-13T04:41:13.741Z,15.13
2018-04-13T04:43:41.301Z,15.10
2018-04-13T04:46:08.856Z,16.13
2018-04-13T04:48:37.201Z,14.97
2018-04-13T04:51:05.442Z,14.83
2018-04-13T04:53:32.938Z,14.90
2018-04-13T04:56:01.176Z,15.37
2018-04-13T04:58:28.655Z,20.07
2018-04-13T05:00:56.149Z,17.90
2018-04-13T05:03:23.668Z,14.37
2018-04-13T05:05:51.139Z,15.03
2018-04-13T05:08:19.438Z,15.80
2018-04-13T05:10:46.913Z,14.57
2018-04-13T05:13:14.428Z,13.17
2018-04-13T05:15:42.699Z,14.03
2018-04-13T05:18:10.168Z,13.33
2018-04-13T05:20:38.448Z,13.37
2018-04-13T05:23:05.938Z,14.07
2018-04-13T05:25:33.442Z,14.10
2018-04-13T05:28:03.430Z,15.40
2018-04-13T05:30:30.952Z,14.10
2018-04-13T05:32:58.438Z,14.67
2018-04-13T05:35:25.909Z,12.83
2018-04-13T05:37:53.404Z,13.80
2018-04-13T05:40:20.877Z,12.40
2018-04-13T05:45:40.261Z,13.37
2018-04-13T05:48:08.529Z,13.00
2018-04-13T05:50:36.003Z,13.77
2018-04-13T05:53:04.269Z,14.50
2018-04-13T05:55:32.508Z,12.60
2018-04-13T05:58:00.772Z,13.20
2018-04-13T06:00:28.257Z,14.60
2018-04-13T06:05:49.398Z,12.20
2018-04-13T06:08:16.901Z,12.27
2018-04-13T06:10:45.756Z,12.07
2018-04-13T06:13:13.993Z,11.07
2018-04-13T06:15:41.494Z,12.30
2018-04-13T06:18:09.731Z,14.63
2018-04-13T06:20:37.300Z,12.70
2018-04-13T06:23:04.794Z,12.50
2018-04-13T06:25:33.029Z,12.87
2018-04-13T06:28:00.533Z,11.03
2018-04-13T06:30:28.810Z,11.50
2018-04-13T06:32:56.288Z,12.23
2018-04-13T06:35:23.773Z,12.23
2018-04-13T06:37:51.281Z,11.20
2018-04-13T06:40:18.770Z,10.80
2018-04-13T06:42:46.288Z,11.40
2018-04-13T06:45:14.540Z,11.57
2018-04-13T06:47:42.042Z,11.70
2018-04-13T06:50:09.541Z,10.57
2018-04-13T06:52:37.014Z,9.63
2018-04-13T06:55:04.505Z,8.00
2018-04-13T06:57:32.742Z,10.50
2018-04-13T07:00:00.253Z,12.03
2018-04-13T07:02:27.764Z,7.27
2018-04-13T07:04:55.201Z,5.50
2018-04-13T07:07:22.700Z,3.80
2018-04-13T07:09:50.948Z,4.77
2018-04-13T07:12:18.449Z,4.00
2018-04-13T07:14:46.720Z,11.37
2018-04-13T07:17:14.992Z,10.70
2018-04-13T07:19:43.254Z,3.20
2018-04-13T07:22:10.729Z,2.57
2018-04-13T07:24:38.999Z,3.37
2018-04-13T07:27:06.524Z,2.53
2018-04-13T07:29:34.019Z,2.33
2018-04-13T07:32:02.261Z,1.80
2018-04-13T07:34:29.765Z,1.47
2018-04-13T07:36:58.004Z,2.10
2018-04-13T07:39:25.532Z,2.20
2018-04-13T07:41:53.765Z,1.60
2018-04-13T07:44:22.004Z,1.83
2018-04-13T07:46:49.493Z,1.73
2018-04-13T07:49:16.979Z,1.50
2018-04-13T07:51:44.478Z,1.80
2018-04-13T07:54:11.953Z,1.90
2018-04-13T07:56:39.460Z,1.57
2018-04-13T07:59:06.956Z,1.50
2018-04-13T08:01:34.491Z,2.07
2018-04-13T08:04:01.969Z,2.00
2018-04-13T08:06:29.441Z,1.60
2018-04-13T08:08:56.939Z,1.43
2018-04-13T08:11:25.196Z,1.53
2018-04-13T08:13:52.706Z,1.83
2018-04-13T08:16:20.188Z,1.50
2018-04-13T08:18:47.670Z,1.50
2018-04-13T08:21:15.180Z,1.77
2018-04-13T08:23:42.674Z,2.13
2018-04-13T08:26:10.157Z,1.10
2018-04-13T08:28:38.424Z,1.77
2018-04-13T08:31:05.922Z,1.50
2018-04-13T08:33:33.406Z,1.50
2018-04-13T08:36:00.901Z,1.90
2018-04-13T08:38:28.371Z,1.60
2018-04-13T08:40:56.638Z,1.50
2018-04-13T08:43:24.932Z,1.40
2018-04-13T08:45:52.394Z,1.93
2018-04-13T08:48:19.860Z,1.67
2018-04-13T08:50:47.385Z,1.90
2018-04-13T08:53:14.848Z,2.00
2018-04-13T08:55:43.117Z,1.47
2018-04-13T08:58:10.587Z,1.60
2018-04-13T09:00:38.862Z,2.30
2018-04-13T09:03:07.098Z,3.80
2018-04-13T09:05:34.588Z,4.80
2018-04-13T09:08:02.095Z,5.83
2018-04-13T09:10:29.564Z,5.03
2018-04-13T09:12:57.111Z,4.93
2018-04-13T09:15:25.326Z,4.73
2018-04-13T09:17:52.842Z,4.33
2018-04-13T09:20:20.338Z,3.63
2018-04-13T09:22:47.837Z,3.47
2018-04-13T09:25:16.069Z,3.37
2018-04-13T09:27:43.589Z,3.10
2018-04-13T09:30:11.069Z,2.30
2018-04-13T09:32:38.564Z,2.20
2018-04-13T09:35:06.036Z,2.03
2018-04-13T09:37:34.299Z,1.80
2018-04-13T09:40:02.576Z,1.60
2018-04-13T09:42:30.818Z,2.03
2018-04-13T09:44:58.315Z,1.90
2018-04-13T09:47:26.562Z,2.37
2018-04-13T09:49:54.061Z,1.57
2018-04-13T09:52:22.329Z,2.00
2018-04-13T09:54:50.562Z,2.40
2018-04-13T09:57:18.031Z,2.50
2018-04-13T09:59:45.529Z,2.00
2018-04-13T10:02:19.493Z,2.87
2018-04-13T10:04:46.980Z,2.70
2018-04-13T10:07:14.482Z,2.63
2018-04-13T10:09:41.977Z,2.97
2018-04-13T10:12:09.440Z,2.37
2018-04-13T10:14:36.954Z,2.83
2018-04-13T10:17:04.425Z,3.57
2018-04-13T10:19:31.925Z,3.40
2018-04-13T10:21:59.389Z,3.17
2018-04-13T10:24:27.660Z,3.83
2018-04-13T10:26:55.167Z,3.07
2018-04-13T10:29:23.419Z,2.20
2018-04-13T10:31:51.664Z,3.77
2018-04-13T10:34:19.278Z,3.00
2018-04-13T10:36:46.776Z,3.93
2018-04-13T10:39:14.245Z,3.67
2018-04-13T10:41:41.716Z,3.20
2018-04-13T10:44:09.986Z,3.80
2018-04-13T10:46:37.457Z,4.10
2018-04-13T10:49:05.704Z,4.20
2018-04-13T10:51:33.321Z,3.63
2018-04-13T10:54:00.790Z,4.03
2018-04-13T10:56:28.294Z,4.07
2018-04-13T10:58:55.768Z,5.37
2018-04-13T11:01:24.028Z,3.97
2018-04-13T11:03:51.520Z,3.90
2018-04-13T11:06:18.996Z,4.70
2018-04-13T11:08:46.498Z,4.50
2018-04-13T11:11:13.970Z,4.20
2018-04-13T11:13:42.247Z,4.37
2018-04-13T11:16:10.485Z,4.10
2018-04-13T11:18:37.980Z,3.23
2018-04-13T11:21:06.259Z,3.43
2018-04-13T11:23:34.501Z,3.57
2018-04-13T11:26:01.970Z,3.70
2018-04-13T11:28:29.586Z,3.23
2018-04-13T11:31:01.624Z,3.90
2018-04-13T11:33:29.203Z,3.90
2018-04-13T11:35:56.636Z,3.50
2018-04-13T11:38:24.897Z,2.97
2018-04-13T11:40:52.375Z,2.73
2018-04-13T11:43:20.641Z,2.67
2018-04-13T11:45:48.900Z,2.73
2018-04-13T11:48:16.372Z,2.90
2018-04-13T11:50:43.864Z,3.10
2018-04-13T11:53:11.335Z,4.40
2018-04-13T11:55:38.840Z,3.37
2018-04-13T11:58:06.312Z,3.70
2018-04-13T12:00:34.555Z,9.53
2018-04-13T12:03:02.054Z,6.97
2018-04-13T12:05:30.324Z,17.70
2018-04-13T12:07:58.585Z,9.30
2018-04-13T12:10:26.068Z,12.93
2018-04-13T12:12:54.332Z,6.97
2018-04-13T12:15:22.568Z,5.33
2018-04-13T12:17:50.073Z,3.30
2018-04-13T12:20:18.332Z,4.03
2018-04-13T12:22:45.810Z,5.77
2018-04-13T12:25:14.078Z,6.43
2018-04-13T12:27:42.321Z,4.70
2018-04-13T12:30:09.824Z,4.67
2018-04-13T12:32:38.073Z,4.50
2018-04-13T12:35:05.599Z,5.73
2018-04-13T12:37:33.073Z,5.13
2018-04-13T12:40:00.554Z,4.70
2018-04-13T12:42:28.050Z,4.37
2018-04-13T12:44:55.548Z,4.57
2018-04-13T12:47:23.029Z,4.07
2018-04-13T12:49:50.553Z,4.70
2018-04-13T12:52:18.061Z,4.67
2018-04-13T12:54:46.488Z,5.10
2018-04-13T12:57:14.576Z,4.10
2018-04-13T12:59:42.057Z,5.70
2018-04-13T13:02:09.589Z,4.53
2018-04-13T13:04:37.072Z,5.00
2018-04-13T13:07:04.569Z,4.67
2018-04-13T13:09:32.041Z,5.13
2018-04-13T13:11:59.553Z,5.10
2018-04-13T13:14:27.028Z,5.20
2018-04-13T13:16:55.270Z,5.70
2018-04-13T13:19:22.802Z,5.47
2018-04-13T13:21:50.280Z,5.30
2018-04-13T13:24:17.777Z,4.30
2018-04-13T13:26:46.015Z,5.40
2018-04-13T13:29:13.533Z,4.87
2018-04-13T13:31:41.063Z,5.10
2018-04-13T13:34:08.575Z,5.17
2018-04-13T13:36:36.049Z,5.37
2018-04-13T13:39:03.520Z,6.43
2018-04-13T13:41:31.016Z,6.47
2018-04-13T13:43:58.487Z,6.40
2018-04-13T13:46:25.980Z,6.70
2018-04-13T13:48:53.449Z,6.43
2018-04-13T13:51:20.973Z,6.67
2018-04-13T13:53:48.448Z,5.30
2018-04-13T13:56:15.916Z,6.03
2018-04-13T13:58:43.422Z,6.73
2018-04-13T14:01:10.916Z,5.47
2018-04-13T14:03:38.415Z,5.80
2018-04-13T14:06:05.881Z,6.43
2018-04-13T14:08:34.146Z,6.83
2018-04-13T14:11:01.661Z,6.03
2018-04-13T14:13:29.129Z,5.20
2018-04-13T14:15:56.605Z,6.13
2018-04-13T14:18:24.124Z,5.60
2018-04-13T14:20:51.598Z,6.27
2018-04-13T14:23:19.064Z,6.57
2018-04-13T14:25:46.568Z,6.33
2018-04-13T14:28:14.813Z,8.00
2018-04-13T14:30:42.293Z,6.67
2018-04-13T14:33:10.563Z,7.60
2018-04-13T14:35:38.034Z,7.40
2018-04-13T14:38:06.305Z,7.00
2018-04-13T14:40:34.545Z,8.00
2018-04-13T14:43:02.042Z,8.30
2018-04-13T14:45:30.314Z,8.27
2018-04-13T14:47:58.582Z,8.37
2018-04-13T14:50:26.081Z,7.17
2018-04-13T14:52:53.597Z,7.67
2018-04-13T14:55:21.081Z,8.67
2018-04-13T14:57:49.325Z,7.97
2018-04-13T15:00:16.832Z,9.00
2018-04-13T15:02:44.310Z,8.93
2018-04-13T15:05:11.785Z,8.87
2018-04-13T15:07:39.289Z,9.03
2018-04-13T15:10:07.558Z,9.27
2018-04-13T15:12:35.797Z,9.23
2018-04-13T15:15:04.074Z,9.57
2018-04-13T15:17:31.572Z,9.73
2018-04-13T15:19:59.812Z,9.90
2018-04-13T15:22:27.325Z,8.60
2018-04-13T15:24:54.797Z,9.80
2018-04-13T15:27:22.305Z,11.33
2018-04-13T15:29:49.816Z,10.10
2018-04-13T15:32:17.298Z,10.20
2018-04-13T15:34:44.793Z,9.30
2018-04-13T15:37:13.037Z,11.23
2018-04-13T15:39:40.542Z,121.90
2018-04-13T15:42:08.941Z,46.10
2018-04-13T15:44:36.453Z,11.63
2018-04-13T15:47:04.878Z,14.60
2018-04-13T15:49:32.396Z,28.07
2018-04-13T15:51:59.904Z,15.77
2018-04-13T15:54:27.392Z,17.27
2018-04-13T15:56:55.015Z,11.70
2018-04-13T15:59:22.492Z,11.63
2018-04-13T16:01:49.990Z,21.37
2018-04-13T16:04:17.473Z,15.77
2018-04-13T16:06:45.758Z,15.30
2018-04-13T16:09:13.287Z,12.27
2018-04-13T16:11:40.767Z,12.87
2018-04-13T16:14:09.038Z,15.57
2018-04-13T16:16:37.285Z,13.00
2018-04-13T16:19:04.802Z,13.50
2018-04-13T16:21:32.308Z,13.77
2018-04-13T16:23:59.780Z,14.63
2018-04-13T16:26:28.058Z,15.97
2018-04-13T16:28:56.305Z,16.13
2018-04-13T16:31:23.785Z,15.20
2018-04-13T16:33:52.057Z,14.83
2018-04-13T16:36:20.348Z,16.93
2018-04-13T16:38:48.597Z,28.93
2018-04-13T16:41:16.070Z,17.60
2018-04-13T16:43:43.568Z,17.67
2018-04-13T16:46:11.052Z,18.63
2018-04-13T16:48:38.574Z,17.20
2018-04-13T16:51:06.050Z,18.07
2018-04-13T16:53:33.537Z,18.63
2018-04-13T16:56:01.859Z,18.10
2018-04-13T16:58:29.312Z,18.10
2018-04-13T17:00:57.581Z,18.83
2018-04-13T17:03:25.849Z,20.17
2018-04-13T17:05:54.146Z,18.10
2018-04-13T17:08:22.376Z,19.77
2018-04-13T17:10:49.894Z,18.53
2018-04-13T17:13:17.376Z,18.50
2018-04-13T17:15:44.853Z,21.37
2018-04-13T17:18:12.364Z,20.87
2018-04-13T17:20:39.863Z,23.70
2018-04-13T17:23:07.376Z,21.60
2018-04-13T17:25:34.878Z,24.50
2018-04-13T17:28:02.358Z,29.40
2018-04-13T17:30:29.861Z,27.97
2018-04-13T17:32:57.345Z,24.00
2018-04-13T17:35:24.849Z,24.93
2018-04-13T17:37:53.100Z,22.53
2018-04-13T17:40:20.601Z,22.80
2018-04-13T17:42:48.091Z,20.80
2018-04-13T17:45:15.605Z,22.83
2018-04-13T17:47:43.849Z,21.40
2018-04-13T17:50:11.328Z,20.20
2018-04-13T17:52:38.835Z,21.47
2018-04-13T17:55:06.308Z,20.90
2018-04-13T17:57:33.808Z,23.80
2018-04-13T18:00:02.093Z,24.60
2018-04-13T18:02:30.328Z,23.90
2018-04-13T18:04:57.810Z,24.73
2018-04-13T18:07:25.357Z,23.07
2018-04-13T18:09:52.890Z,21.20
2018-04-13T18:12:20.365Z,20.87
2018-04-13T18:14:47.864Z,20.33
2018-04-13T18:17:16.121Z,22.00
2018-04-13T18:19:43.624Z,22.60
2018-04-13T18:22:11.104Z,21.30
2018-04-13T18:24:38.646Z,21.97
2018-04-13T18:27:06.152Z,22.10
2018-04-13T18:29:33.663Z,24.07
2018-04-13T18:32:01.174Z,22.67
2018-04-13T18:34:29.456Z,23.83
2018-04-13T18:36:56.931Z,22.60
2018-04-13T18:39:25.287Z,24.50
2018-04-13T18:41:52.721Z,23.63
2018-04-13T18:44:20.197Z,23.33
2018-04-13T18:46:47.715Z,24.17
2018-04-13T18:49:15.231Z,24.60
2018-04-13T18:51:43.483Z,22.90
2018-04-13T18:54:10.981Z,23.17
2018-04-13T18:56:38.468Z,24.00
2018-04-13T18:59:05.964Z,23.20
2018-04-13T19:01:33.744Z,23.73
2018-04-13T19:04:01.998Z,22.83
2018-04-13T19:06:29.476Z,23.67
2018-04-13T19:08:57.748Z,25.73
2018-04-13T19:11:25.221Z,24.50
2018-04-13T19:13:53.489Z,24.63
2018-04-13T19:16:21.875Z,24.23
2018-04-13T19:18:50.457Z,23.87
2018-04-13T19:21:18.699Z,23.03
2018-04-13T19:23:46.171Z,22.50
2018-04-13T19:26:13.745Z,23.03
2018-04-13T19:28:41.164Z,22.07
2018-04-13T19:31:08.660Z,22.30
2018-04-13T19:33:36.910Z,22.57
2018-04-13T19:36:04.405Z,21.50
2018-04-13T19:38:32.645Z,25.00
2018-04-13T19:41:00.165Z,21.40
2018-04-13T19:43:27.652Z,23.90
2018-04-13T19:45:56.409Z,21.63
2018-04-13T19:48:23.918Z,26.77
2018-04-13T19:50:51.401Z,23.63
2018-04-13T19:53:19.670Z,24.03
2018-04-13T19:55:47.920Z,24.53
2018-04-13T19:58:15.422Z,25.73
2018-04-13T20:00:42.921Z,25.10
2018-04-13T20:03:10.403Z,24.67
2018-04-13T20:05:37.899Z,25.73
2018-04-13T20:08:05.374Z,26.43
2018-04-13T20:10:32.869Z,27.17
2018-04-13T20:13:00.356Z,26.53
2018-04-13T20:15:28.616Z,23.90
2018-04-13T20:17:56.091Z,24.20
2018-04-13T20:20:24.349Z,23.13
2018-04-13T20:22:51.829Z,26.03
2018-04-13T20:25:20.090Z,24.37
2018-04-13T20:27:47.568Z,24.30
2018-04-13T20:30:15.823Z,28.00
2018-04-13T20:32:43.342Z,24.00
2018-04-13T20:35:10.817Z,25.67
2018-04-13T20:37:38.332Z,27.73
2018-04-13T20:40:05.817Z,26.90
2018-04-13T20:42:33.745Z,26.13
2018-04-13T20:45:01.991Z,28.47
2018-04-13T20:47:29.472Z,26.90
2018-04-13T20:49:58.730Z,25.63
2018-04-13T20:52:26.204Z,26.33
2018-04-13T20:54:53.705Z,26.43
2018-04-13T20:57:21.197Z,24.40
2018-04-13T20:59:48.697Z,25.20
2018-04-13T21:02:16.177Z,25.80
2018-04-13T21:04:43.666Z,25.30
2018-04-13T21:07:11.200Z,25.67
2018-04-13T21:09:39.588Z,25.27
2018-04-13T21:12:07.109Z,26.13
2018-04-13T21:14:36.719Z,27.07
2018-04-13T21:17:05.006Z,24.77
2018-04-13T21:19:33.265Z,25.30
2018-04-13T21:22:00.797Z,25.47
2018-04-13T21:24:28.254Z,27.03
2018-04-13T21:26:55.745Z,27.17
2018-04-13T21:29:23.238Z,28.73
2018-04-13T21:31:50.716Z,25.60
2018-04-13T21:34:18.219Z,25.83
2018-04-13T21:36:46.472Z,26.90
2018-04-13T21:39:13.969Z,25.27
2018-04-13T21:41:42.512Z,27.33
2018-04-13T21:44:09.997Z,26.60
2018-04-13T21:46:38.613Z,26.00
2018-04-13T21:49:06.090Z,26.03
2018-04-13T21:51:33.908Z,25.10
2018-04-13T21:54:02.164Z,27.33
2018-04-13T21:56:29.646Z,25.63
2018-04-13T21:58:57.921Z,23.80
2018-04-13T22:01:26.177Z,25.80
2018-04-13T22:03:53.674Z,25.80
2018-04-13T22:06:21.155Z,26.70
2018-04-13T22:08:48.997Z,25.50
2018-04-13T22:11:17.242Z,27.43
2018-04-13T22:13:46.577Z,25.60
2018-04-13T22:16:14.076Z,23.97
2018-04-13T22:18:41.552Z,26.33
2018-04-13T22:21:09.044Z,24.70
2018-04-13T22:23:37.288Z,25.50
2018-04-13T22:26:04.785Z,23.63
2018-04-13T22:28:32.269Z,25.00
2018-04-13T22:31:00.100Z,24.60
2018-04-13T22:33:28.341Z,24.23
2018-04-13T22:35:55.815Z,27.80
2018-04-13T22:38:23.311Z,25.97
2018-04-13T22:40:50.796Z,25.77
2018-04-13T22:43:18.289Z,27.67
2018-04-13T22:45:45.912Z,25.10
2018-04-13T22:48:13.428Z,24.00
2018-04-13T22:50:41.674Z,25.47
2018-04-13T22:53:09.155Z,27.80
2018-04-13T22:55:37.422Z,25.83
2018-04-13T22:58:04.938Z,24.17
2018-04-13T23:00:32.440Z,23.43
2018-04-13T23:02:59.921Z,25.20
2018-04-13T23:05:29.058Z,25.07
2018-04-13T23:07:56.524Z,24.60
2018-04-13T23:10:24.068Z,25.30
2018-04-13T23:12:51.575Z,24.77
2018-04-13T23:15:19.899Z,24.73
2018-04-13T23:17:49.485Z,25.87
2018-04-13T23:20:16.968Z,25.60
2018-04-13T23:22:44.756Z,25.23
2018-04-13T23:25:12.262Z,26.50
2018-04-13T23:27:40.533Z,25.07
2018-04-13T23:30:08.793Z,25.90
2018-04-13T23:32:40.804Z,23.77
2018-04-13T23:35:09.320Z,23.87
2018-04-13T23:37:36.840Z,26.27
2018-04-13T23:40:04.334Z,26.07
2018-04-13T23:42:31.843Z,24.33
2018-04-13T23:44:59.322Z,24.77
2018-04-13T23:47:26.833Z,23.07
2018-04-13T23:49:54.314Z,21.90
2018-04-13T23:52:21.804Z,18.80
2018-04-13T23:54:49.329Z,19.53
2018-04-13T23:57:17.574Z,15.93
2018-04-13T23:59:45.086Z,16.43
